<?xml version="1.0" encoding="UTF-8" standalone="no" ?>
<gpx xmlns="http://www.topografix.com/GPX/1/1" xmlns:xsi="http://www.w3.org/2001/XMLSchema-instance" xsi:schemaLocation="http://www.topografix.com/GPX/1/1 http://www.topografix.com/GPX/1/1/gpx.xsd" version="1.1" creator="VisuGPX - https://www.visugpx.com">
  <metadata>
    <name>Houblonnière VTT 2020</name>
    <desc><![CDATA[Circuit VTT houblonnière 2020]]></desc>
  </metadata>
  <trk>
    <name><![CDATA[9879153-houblonniére 2020]]></name>
    <trkseg>
      <trkpt lat="48.79365" lon="5.12116">
        <ele>173</ele>
        <time>2019-04-28T11:46:17Z</time>
      </trkpt>
      <trkpt lat="48.79411" lon="5.11988">
        <ele>173</ele>
        <time>2019-04-28T11:47:17Z</time>
      </trkpt>
      <trkpt lat="48.79471" lon="5.11888">
        <ele>171</ele>
        <time>2019-04-28T11:48:17Z</time>
      </trkpt>
      <trkpt lat="48.79504" lon="5.11688">
        <ele>171</ele>
        <time>2019-04-28T11:49:17Z</time>
      </trkpt>
      <trkpt lat="48.79532" lon="5.11545">
        <ele>174</ele>
        <time>2019-04-28T11:50:17Z</time>
      </trkpt>
      <trkpt lat="48.79481" lon="5.11506">
        <ele>180</ele>
        <time>2019-04-28T11:51:17Z</time>
      </trkpt>
      <trkpt lat="48.79421" lon="5.115">
        <ele>183</ele>
        <time>2019-04-28T11:52:17Z</time>
      </trkpt>
      <trkpt lat="48.79329" lon="5.11545">
        <ele>186</ele>
        <time>2019-04-28T11:53:17Z</time>
      </trkpt>
      <trkpt lat="48.79273" lon="5.11548">
        <ele>190</ele>
        <time>2019-04-28T11:54:17Z</time>
      </trkpt>
      <trkpt lat="48.79187" lon="5.11433">
        <ele>202</ele>
        <time>2019-04-28T11:55:17Z</time>
      </trkpt>
      <trkpt lat="48.79123" lon="5.11366">
        <ele>211</ele>
        <time>2019-04-28T11:56:17Z</time>
      </trkpt>
      <trkpt lat="48.79057" lon="5.11309">
        <ele>217</ele>
        <time>2019-04-28T11:57:17Z</time>
      </trkpt>
      <trkpt lat="48.78999" lon="5.11278">
        <ele>219</ele>
        <time>2019-04-28T11:58:17Z</time>
      </trkpt>
      <trkpt lat="48.78903" lon="5.11251">
        <ele>223</ele>
        <time>2019-04-28T11:59:17Z</time>
      </trkpt>
      <trkpt lat="48.78817" lon="5.11218">
        <ele>230</ele>
        <time>2019-04-28T12:00:17Z</time>
      </trkpt>
      <trkpt lat="48.78807" lon="5.11029">
        <ele>247</ele>
        <time>2019-04-28T12:01:17Z</time>
      </trkpt>
      <trkpt lat="48.78839" lon="5.10853">
        <ele>254</ele>
        <time>2019-04-28T12:02:17Z</time>
      </trkpt>
      <trkpt lat="48.78849" lon="5.10735">
        <ele>247</ele>
        <time>2019-04-28T12:03:17Z</time>
      </trkpt>
      <trkpt lat="48.78857" lon="5.10665">
        <ele>242</ele>
        <time>2019-04-28T12:04:17Z</time>
      </trkpt>
      <trkpt lat="48.78815" lon="5.10629">
        <ele>244</ele>
        <time>2019-04-28T12:05:17Z</time>
      </trkpt>
      <trkpt lat="48.78797" lon="5.10605">
        <ele>245</ele>
        <time>2019-04-28T12:06:17Z</time>
      </trkpt>
      <trkpt lat="48.78777" lon="5.10538">
        <ele>247</ele>
        <time>2019-04-28T12:07:17Z</time>
      </trkpt>
      <trkpt lat="48.78787" lon="5.10462">
        <ele>247</ele>
        <time>2019-04-28T12:08:17Z</time>
      </trkpt>
      <trkpt lat="48.78791" lon="5.10389">
        <ele>250</ele>
        <time>2019-04-28T12:09:17Z</time>
      </trkpt>
      <trkpt lat="48.78761" lon="5.10344">
        <ele>252</ele>
        <time>2019-04-28T12:10:17Z</time>
      </trkpt>
      <trkpt lat="48.78739" lon="5.10319">
        <ele>252</ele>
        <time>2019-04-28T12:11:17Z</time>
      </trkpt>
      <trkpt lat="48.78701" lon="5.1028">
        <ele>250</ele>
        <time>2019-04-28T12:12:17Z</time>
      </trkpt>
      <trkpt lat="48.78673" lon="5.10253">
        <ele>249</ele>
        <time>2019-04-28T12:13:17Z</time>
      </trkpt>
      <trkpt lat="48.78697" lon="5.10158">
        <ele>249</ele>
        <time>2019-04-28T12:14:17Z</time>
      </trkpt>
      <trkpt lat="48.78733" lon="5.10043">
        <ele>246</ele>
        <time>2019-04-28T12:15:17Z</time>
      </trkpt>
      <trkpt lat="48.78759" lon="5.09907">
        <ele>240</ele>
        <time>2019-04-28T12:16:17Z</time>
      </trkpt>
      <trkpt lat="48.78735" lon="5.09864">
        <ele>237</ele>
        <time>2019-04-28T12:17:17Z</time>
      </trkpt>
      <trkpt lat="48.78713" lon="5.09803">
        <ele>234</ele>
        <time>2019-04-28T12:18:17Z</time>
      </trkpt>
      <trkpt lat="48.78689" lon="5.09764">
        <ele>233</ele>
        <time>2019-04-28T12:19:17Z</time>
      </trkpt>
      <trkpt lat="48.78651" lon="5.09728">
        <ele>232</ele>
        <time>2019-04-28T12:20:17Z</time>
      </trkpt>
      <trkpt lat="48.78621" lon="5.09685">
        <ele>230</ele>
        <time>2019-04-28T12:21:17Z</time>
      </trkpt>
      <trkpt lat="48.78589" lon="5.09646">
        <ele>227</ele>
        <time>2019-04-28T12:22:17Z</time>
      </trkpt>
      <trkpt lat="48.78569" lon="5.09706">
        <ele>230</ele>
        <time>2019-04-28T12:23:17Z</time>
      </trkpt>
      <trkpt lat="48.78541" lon="5.09658">
        <ele>227</ele>
        <time>2019-04-28T12:24:17Z</time>
      </trkpt>
      <trkpt lat="48.78509" lon="5.09591">
        <ele>225</ele>
        <time>2019-04-28T12:25:17Z</time>
      </trkpt>
      <trkpt lat="48.78475" lon="5.09542">
        <ele>225</ele>
        <time>2019-04-28T12:26:17Z</time>
      </trkpt>
      <trkpt lat="48.78453" lon="5.09503">
        <ele>224</ele>
        <time>2019-04-28T12:27:17Z</time>
      </trkpt>
      <trkpt lat="48.78421" lon="5.0943">
        <ele>221</ele>
        <time>2019-04-28T12:28:17Z</time>
      </trkpt>
      <trkpt lat="48.78377" lon="5.093">
        <ele>220</ele>
        <time>2019-04-28T12:29:17Z</time>
      </trkpt>
      <trkpt lat="48.78337" lon="5.09148">
        <ele>220</ele>
        <time>2019-04-28T12:30:17Z</time>
      </trkpt>
      <trkpt lat="48.78313" lon="5.09051">
        <ele>218</ele>
        <time>2019-04-28T12:31:17Z</time>
      </trkpt>
      <trkpt lat="48.78263" lon="5.08966">
        <ele>221</ele>
        <time>2019-04-28T12:32:17Z</time>
      </trkpt>
      <trkpt lat="48.78251" lon="5.08936">
        <ele>222</ele>
        <time>2019-04-28T12:33:17Z</time>
      </trkpt>
      <trkpt lat="48.78197" lon="5.08932">
        <ele>228</ele>
        <time>2019-04-28T12:34:17Z</time>
      </trkpt>
      <trkpt lat="48.78167" lon="5.08966">
        <ele>230</ele>
        <time>2019-04-28T12:35:17Z</time>
      </trkpt>
      <trkpt lat="48.78135" lon="5.09078">
        <ele>232</ele>
        <time>2019-04-28T12:36:17Z</time>
      </trkpt>
      <trkpt lat="48.78111" lon="5.09187">
        <ele>234</ele>
        <time>2019-04-28T12:37:17Z</time>
      </trkpt>
      <trkpt lat="48.78085" lon="5.09297">
        <ele>235</ele>
        <time>2019-04-28T12:38:17Z</time>
      </trkpt>
      <trkpt lat="48.78059" lon="5.09442">
        <ele>234</ele>
        <time>2019-04-28T12:39:17Z</time>
      </trkpt>
      <trkpt lat="48.78031" lon="5.09561">
        <ele>237</ele>
        <time>2019-04-28T12:40:17Z</time>
      </trkpt>
      <trkpt lat="48.77997" lon="5.0957">
        <ele>238</ele>
        <time>2019-04-28T12:41:17Z</time>
      </trkpt>
      <trkpt lat="48.77945" lon="5.09524">
        <ele>233</ele>
        <time>2019-04-28T12:42:17Z</time>
      </trkpt>
      <trkpt lat="48.77921" lon="5.09482">
        <ele>232</ele>
        <time>2019-04-28T12:43:17Z</time>
      </trkpt>
      <trkpt lat="48.77875" lon="5.09482">
        <ele>226</ele>
        <time>2019-04-28T12:44:17Z</time>
      </trkpt>
      <trkpt lat="48.77879" lon="5.09278">
        <ele>225</ele>
        <time>2019-04-28T12:45:17Z</time>
      </trkpt>
      <trkpt lat="48.77879" lon="5.09133">
        <ele>231</ele>
        <time>2019-04-28T12:46:17Z</time>
      </trkpt>
      <trkpt lat="48.77877" lon="5.08981">
        <ele>231</ele>
        <time>2019-04-28T12:47:17Z</time>
      </trkpt>
      <trkpt lat="48.77885" lon="5.08884">
        <ele>230</ele>
        <time>2019-04-28T12:48:17Z</time>
      </trkpt>
      <trkpt lat="48.77899" lon="5.08787">
        <ele>227</ele>
        <time>2019-04-28T12:49:17Z</time>
      </trkpt>
      <trkpt lat="48.77923" lon="5.08711">
        <ele>224</ele>
        <time>2019-04-28T12:50:17Z</time>
      </trkpt>
      <trkpt lat="48.77939" lon="5.08635">
        <ele>221</ele>
        <time>2019-04-28T12:51:17Z</time>
      </trkpt>
      <trkpt lat="48.77939" lon="5.08602">
        <ele>219</ele>
        <time>2019-04-28T12:52:17Z</time>
      </trkpt>
      <trkpt lat="48.77897" lon="5.08544">
        <ele>212</ele>
        <time>2019-04-28T12:53:17Z</time>
      </trkpt>
      <trkpt lat="48.77871" lon="5.08514">
        <ele>208</ele>
        <time>2019-04-28T12:54:17Z</time>
      </trkpt>
      <trkpt lat="48.77935" lon="5.08447">
        <ele>206</ele>
        <time>2019-04-28T12:55:17Z</time>
      </trkpt>
      <trkpt lat="48.77997" lon="5.0838">
        <ele>203</ele>
        <time>2019-04-28T12:56:17Z</time>
      </trkpt>
      <trkpt lat="48.78049" lon="5.08304">
        <ele>207</ele>
        <time>2019-04-28T12:57:17Z</time>
      </trkpt>
      <trkpt lat="48.77973" lon="5.0818">
        <ele>203</ele>
        <time>2019-04-28T12:58:17Z</time>
      </trkpt>
      <trkpt lat="48.77947" lon="5.08128">
        <ele>202</ele>
        <time>2019-04-28T12:59:17Z</time>
      </trkpt>
      <trkpt lat="48.77921" lon="5.08165">
        <ele>205</ele>
        <time>2019-04-28T13:00:17Z</time>
      </trkpt>
      <trkpt lat="48.77885" lon="5.08192">
        <ele>208</ele>
        <time>2019-04-28T13:01:17Z</time>
      </trkpt>
      <trkpt lat="48.77845" lon="5.08216">
        <ele>211</ele>
        <time>2019-04-28T13:02:17Z</time>
      </trkpt>
      <trkpt lat="48.77803" lon="5.08253">
        <ele>212</ele>
        <time>2019-04-28T13:03:17Z</time>
      </trkpt>
      <trkpt lat="48.77753" lon="5.08298">
        <ele>211</ele>
        <time>2019-04-28T13:04:17Z</time>
      </trkpt>
      <trkpt lat="48.77701" lon="5.08313">
        <ele>213</ele>
        <time>2019-04-28T13:05:17Z</time>
      </trkpt>
      <trkpt lat="48.77721" lon="5.0838">
        <ele>211</ele>
        <time>2019-04-28T13:06:17Z</time>
      </trkpt>
      <trkpt lat="48.77727" lon="5.08414">
        <ele>209</ele>
        <time>2019-04-28T13:07:17Z</time>
      </trkpt>
      <trkpt lat="48.77681" lon="5.08459">
        <ele>214</ele>
        <time>2019-04-28T13:08:17Z</time>
      </trkpt>
      <trkpt lat="48.77603" lon="5.08532">
        <ele>221</ele>
        <time>2019-04-28T13:09:17Z</time>
      </trkpt>
      <trkpt lat="48.77517" lon="5.08623">
        <ele>225</ele>
        <time>2019-04-28T13:10:17Z</time>
      </trkpt>
      <trkpt lat="48.77459" lon="5.0869">
        <ele>227</ele>
        <time>2019-04-28T13:11:17Z</time>
      </trkpt>
      <trkpt lat="48.77389" lon="5.08747">
        <ele>227</ele>
        <time>2019-04-28T13:12:17Z</time>
      </trkpt>
      <trkpt lat="48.77327" lon="5.08823">
        <ele>228</ele>
        <time>2019-04-28T13:13:17Z</time>
      </trkpt>
      <trkpt lat="48.77275" lon="5.08838">
        <ele>227</ele>
        <time>2019-04-28T13:14:17Z</time>
      </trkpt>
      <trkpt lat="48.77209" lon="5.08899">
        <ele>226</ele>
        <time>2019-04-28T13:15:17Z</time>
      </trkpt>
      <trkpt lat="48.77203" lon="5.0902">
        <ele>228</ele>
        <time>2019-04-28T13:16:17Z</time>
      </trkpt>
      <trkpt lat="48.77187" lon="5.09166">
        <ele>231</ele>
        <time>2019-04-28T13:17:17Z</time>
      </trkpt>
      <trkpt lat="48.77147" lon="5.093">
        <ele>232</ele>
        <time>2019-04-28T13:18:17Z</time>
      </trkpt>
      <trkpt lat="48.77099" lon="5.09436">
        <ele>236</ele>
        <time>2019-04-28T13:19:17Z</time>
      </trkpt>
      <trkpt lat="48.77075" lon="5.09558">
        <ele>235</ele>
        <time>2019-04-28T13:20:17Z</time>
      </trkpt>
      <trkpt lat="48.77003" lon="5.09518">
        <ele>234</ele>
        <time>2019-04-28T13:21:17Z</time>
      </trkpt>
      <trkpt lat="48.76889" lon="5.0943">
        <ele>234</ele>
        <time>2019-04-28T13:22:17Z</time>
      </trkpt>
      <trkpt lat="48.76805" lon="5.09269">
        <ele>235</ele>
        <time>2019-04-28T13:23:17Z</time>
      </trkpt>
      <trkpt lat="48.76743" lon="5.09151">
        <ele>234</ele>
        <time>2019-04-28T13:24:17Z</time>
      </trkpt>
      <trkpt lat="48.76687" lon="5.0903">
        <ele>234</ele>
        <time>2019-04-28T13:25:17Z</time>
      </trkpt>
      <trkpt lat="48.76601" lon="5.0892">
        <ele>232</ele>
        <time>2019-04-28T13:26:17Z</time>
      </trkpt>
      <trkpt lat="48.76563" lon="5.08896">
        <ele>231</ele>
        <time>2019-04-28T13:27:17Z</time>
      </trkpt>
      <trkpt lat="48.76495" lon="5.08978">
        <ele>227</ele>
        <time>2019-04-28T13:28:17Z</time>
      </trkpt>
      <trkpt lat="48.76463" lon="5.08887">
        <ele>229</ele>
        <time>2019-04-28T13:29:17Z</time>
      </trkpt>
      <trkpt lat="48.76423" lon="5.08796">
        <ele>228</ele>
        <time>2019-04-28T13:30:17Z</time>
      </trkpt>
      <trkpt lat="48.76365" lon="5.08675">
        <ele>222</ele>
        <time>2019-04-28T13:31:17Z</time>
      </trkpt>
      <trkpt lat="48.76331" lon="5.08626">
        <ele>222</ele>
        <time>2019-04-28T13:32:17Z</time>
      </trkpt>
      <trkpt lat="48.76275" lon="5.08541">
        <ele>226</ele>
        <time>2019-04-28T13:33:17Z</time>
      </trkpt>
      <trkpt lat="48.76193" lon="5.08456">
        <ele>234</ele>
        <time>2019-04-28T13:34:17Z</time>
      </trkpt>
      <trkpt lat="48.76109" lon="5.08408">
        <ele>237</ele>
        <time>2019-04-28T13:35:17Z</time>
      </trkpt>
      <trkpt lat="48.75977" lon="5.08362">
        <ele>236</ele>
        <time>2019-04-28T13:36:17Z</time>
      </trkpt>
      <trkpt lat="48.75907" lon="5.08313">
        <ele>235</ele>
        <time>2019-04-28T13:37:17Z</time>
      </trkpt>
      <trkpt lat="48.75843" lon="5.08219">
        <ele>233</ele>
        <time>2019-04-28T13:38:17Z</time>
      </trkpt>
      <trkpt lat="48.75787" lon="5.08056">
        <ele>229</ele>
        <time>2019-04-28T13:39:17Z</time>
      </trkpt>
      <trkpt lat="48.75749" lon="5.07873">
        <ele>231</ele>
        <time>2019-04-28T13:40:17Z</time>
      </trkpt>
      <trkpt lat="48.75715" lon="5.07713">
        <ele>219</ele>
        <time>2019-04-28T13:41:17Z</time>
      </trkpt>
      <trkpt lat="48.75659" lon="5.07679">
        <ele>219</ele>
        <time>2019-04-28T13:42:17Z</time>
      </trkpt>
      <trkpt lat="48.75611" lon="5.07707">
        <ele>218</ele>
        <time>2019-04-28T13:43:17Z</time>
      </trkpt>
      <trkpt lat="48.75569" lon="5.07795">
        <ele>213</ele>
        <time>2019-04-28T13:44:17Z</time>
      </trkpt>
      <trkpt lat="48.75561" lon="5.07867">
        <ele>205</ele>
        <time>2019-04-28T13:45:17Z</time>
      </trkpt>
      <trkpt lat="48.75587" lon="5.08068">
        <ele>199</ele>
        <time>2019-04-28T13:46:17Z</time>
      </trkpt>
      <trkpt lat="48.75565" lon="5.08128">
        <ele>199</ele>
        <time>2019-04-28T13:47:17Z</time>
      </trkpt>
      <trkpt lat="48.75541" lon="5.08004">
        <ele>195</ele>
        <time>2019-04-28T13:48:17Z</time>
      </trkpt>
      <trkpt lat="48.75493" lon="5.07883">
        <ele>192</ele>
        <time>2019-04-28T13:49:17Z</time>
      </trkpt>
      <trkpt lat="48.75431" lon="5.07822">
        <ele>188</ele>
        <time>2019-04-28T13:50:17Z</time>
      </trkpt>
      <trkpt lat="48.75391" lon="5.07782">
        <ele>190</ele>
        <time>2019-04-28T13:51:17Z</time>
      </trkpt>
      <trkpt lat="48.75329" lon="5.07679">
        <ele>188</ele>
        <time>2019-04-28T13:52:17Z</time>
      </trkpt>
      <trkpt lat="48.75301" lon="5.07676">
        <ele>188</ele>
        <time>2019-04-28T13:53:17Z</time>
      </trkpt>
      <trkpt lat="48.75293" lon="5.07734">
        <ele>193</ele>
        <time>2019-04-28T13:54:17Z</time>
      </trkpt>
      <trkpt lat="48.75315" lon="5.07852">
        <ele>199</ele>
        <time>2019-04-28T13:55:17Z</time>
      </trkpt>
      <trkpt lat="48.75387" lon="5.08116">
        <ele>210</ele>
        <time>2019-04-28T13:56:17Z</time>
      </trkpt>
      <trkpt lat="48.75447" lon="5.08371">
        <ele>221</ele>
        <time>2019-04-28T13:57:17Z</time>
      </trkpt>
      <trkpt lat="48.75531" lon="5.08693">
        <ele>226</ele>
        <time>2019-04-28T13:58:17Z</time>
      </trkpt>
      <trkpt lat="48.75547" lon="5.08763">
        <ele>227</ele>
        <time>2019-04-28T13:59:17Z</time>
      </trkpt>
      <trkpt lat="48.75351" lon="5.08841">
        <ele>243</ele>
        <time>2019-04-28T14:00:17Z</time>
      </trkpt>
      <trkpt lat="48.75347" lon="5.08899">
        <ele>243</ele>
        <time>2019-04-28T14:01:17Z</time>
      </trkpt>
      <trkpt lat="48.75393" lon="5.0913">
        <ele>233</ele>
        <time>2019-04-28T14:02:17Z</time>
      </trkpt>
      <trkpt lat="48.75447" lon="5.09461">
        <ele>239</ele>
        <time>2019-04-28T14:03:17Z</time>
      </trkpt>
      <trkpt lat="48.75533" lon="5.09263">
        <ele>239</ele>
        <time>2019-04-28T14:04:17Z</time>
      </trkpt>
      <trkpt lat="48.75633" lon="5.09124">
        <ele>234</ele>
        <time>2019-04-28T14:05:17Z</time>
      </trkpt>
      <trkpt lat="48.75787" lon="5.09008">
        <ele>228</ele>
        <time>2019-04-28T14:06:17Z</time>
      </trkpt>
      <trkpt lat="48.75941" lon="5.08905">
        <ele>227</ele>
        <time>2019-04-28T14:07:17Z</time>
      </trkpt>
      <trkpt lat="48.76029" lon="5.0889">
        <ele>226</ele>
        <time>2019-04-28T14:08:17Z</time>
      </trkpt>
      <trkpt lat="48.76089" lon="5.08878">
        <ele>222</ele>
        <time>2019-04-28T14:09:17Z</time>
      </trkpt>
      <trkpt lat="48.76055" lon="5.08966">
        <ele>228</ele>
        <time>2019-04-28T14:10:17Z</time>
      </trkpt>
      <trkpt lat="48.76033" lon="5.09078">
        <ele>234</ele>
        <time>2019-04-28T14:11:17Z</time>
      </trkpt>
      <trkpt lat="48.76005" lon="5.09203">
        <ele>238</ele>
        <time>2019-04-28T14:12:17Z</time>
      </trkpt>
      <trkpt lat="48.76045" lon="5.09491">
        <ele>241</ele>
        <time>2019-04-28T14:13:17Z</time>
      </trkpt>
      <trkpt lat="48.76081" lon="5.09737">
        <ele>244</ele>
        <time>2019-04-28T14:14:17Z</time>
      </trkpt>
      <trkpt lat="48.76083" lon="5.09964">
        <ele>242</ele>
        <time>2019-04-28T14:15:17Z</time>
      </trkpt>
      <trkpt lat="48.76101" lon="5.10168">
        <ele>244</ele>
        <time>2019-04-28T14:16:17Z</time>
      </trkpt>
      <trkpt lat="48.76133" lon="5.1024">
        <ele>242</ele>
        <time>2019-04-28T14:17:17Z</time>
      </trkpt>
      <trkpt lat="48.76175" lon="5.10344">
        <ele>238</ele>
        <time>2019-04-28T14:18:17Z</time>
      </trkpt>
      <trkpt lat="48.76113" lon="5.10374">
        <ele>240</ele>
        <time>2019-04-28T14:19:17Z</time>
      </trkpt>
      <trkpt lat="48.76143" lon="5.10526">
        <ele>235</ele>
        <time>2019-04-28T14:20:17Z</time>
      </trkpt>
      <trkpt lat="48.76179" lon="5.1068">
        <ele>226</ele>
        <time>2019-04-28T14:21:17Z</time>
      </trkpt>
      <trkpt lat="48.76207" lon="5.10544">
        <ele>228</ele>
        <time>2019-04-28T14:22:17Z</time>
      </trkpt>
      <trkpt lat="48.76259" lon="5.10432">
        <ele>225</ele>
        <time>2019-04-28T14:23:17Z</time>
      </trkpt>
      <trkpt lat="48.76325" lon="5.10295">
        <ele>224</ele>
        <time>2019-04-28T14:24:17Z</time>
      </trkpt>
      <trkpt lat="48.76371" lon="5.1018">
        <ele>224</ele>
        <time>2019-04-28T14:25:17Z</time>
      </trkpt>
      <trkpt lat="48.76401" lon="5.10128">
        <ele>222</ele>
        <time>2019-04-28T14:26:17Z</time>
      </trkpt>
      <trkpt lat="48.76523" lon="5.10356">
        <ele>226</ele>
        <time>2019-04-28T14:27:17Z</time>
      </trkpt>
      <trkpt lat="48.76639" lon="5.1058">
        <ele>231</ele>
        <time>2019-04-28T14:28:17Z</time>
      </trkpt>
      <trkpt lat="48.76701" lon="5.10771">
        <ele>236</ele>
        <time>2019-04-28T14:29:17Z</time>
      </trkpt>
      <trkpt lat="48.76699" lon="5.10978">
        <ele>238</ele>
        <time>2019-04-28T14:30:17Z</time>
      </trkpt>
      <trkpt lat="48.76745" lon="5.11205">
        <ele>238</ele>
        <time>2019-04-28T14:31:17Z</time>
      </trkpt>
      <trkpt lat="48.76895" lon="5.11151">
        <ele>239</ele>
        <time>2019-04-28T14:32:17Z</time>
      </trkpt>
      <trkpt lat="48.77019" lon="5.11072">
        <ele>245</ele>
        <time>2019-04-28T14:33:17Z</time>
      </trkpt>
      <trkpt lat="48.77189" lon="5.11042">
        <ele>244</ele>
        <time>2019-04-28T14:34:17Z</time>
      </trkpt>
      <trkpt lat="48.77399" lon="5.11123">
        <ele>240</ele>
        <time>2019-04-28T14:35:17Z</time>
      </trkpt>
      <trkpt lat="48.77675" lon="5.11233">
        <ele>240</ele>
        <time>2019-04-28T14:36:17Z</time>
      </trkpt>
      <trkpt lat="48.77961" lon="5.11357">
        <ele>240</ele>
        <time>2019-04-28T14:37:17Z</time>
      </trkpt>
      <trkpt lat="48.78157" lon="5.11463">
        <ele>231</ele>
        <time>2019-04-28T14:38:17Z</time>
      </trkpt>
      <trkpt lat="48.78305" lon="5.11661">
        <ele>217</ele>
        <time>2019-04-28T14:39:17Z</time>
      </trkpt>
      <trkpt lat="48.78467" lon="5.11912">
        <ele>194</ele>
        <time>2019-04-28T14:40:17Z</time>
      </trkpt>
      <trkpt lat="48.78639" lon="5.12016">
        <ele>189</ele>
        <time>2019-04-28T14:41:17Z</time>
      </trkpt>
      <trkpt lat="48.78795" lon="5.1211">
        <ele>186</ele>
        <time>2019-04-28T14:42:17Z</time>
      </trkpt>
      <trkpt lat="48.78957" lon="5.12277">
        <ele>180</ele>
        <time>2019-04-28T14:43:17Z</time>
      </trkpt>
      <trkpt lat="48.79029" lon="5.1241">
        <ele>177</ele>
        <time>2019-04-28T14:44:17Z</time>
      </trkpt>
      <trkpt lat="48.79151" lon="5.1251">
        <ele>174</ele>
        <time>2019-04-28T14:45:17Z</time>
      </trkpt>
      <trkpt lat="48.79261" lon="5.12583">
        <ele>175</ele>
        <time>2019-04-28T14:46:17Z</time>
      </trkpt>
      <trkpt lat="48.79353" lon="5.12653">
        <ele>174</ele>
        <time>2019-04-28T14:47:17Z</time>
      </trkpt>
      <trkpt lat="48.79459" lon="5.12768">
        <ele>174</ele>
        <time>2019-04-28T14:48:17Z</time>
      </trkpt>
      <trkpt lat="48.79532" lon="5.12796">
        <ele>175</ele>
        <time>2019-04-28T14:49:17Z</time>
      </trkpt>
      <trkpt lat="48.79534" lon="5.12844">
        <ele>176</ele>
        <time>2019-04-28T14:50:17Z</time>
      </trkpt>
      <trkpt lat="48.79606" lon="5.12893">
        <ele>185</ele>
        <time>2019-04-28T14:51:17Z</time>
      </trkpt>
      <trkpt lat="48.79724" lon="5.12968">
        <ele>197</ele>
        <time>2019-04-28T14:52:17Z</time>
      </trkpt>
      <trkpt lat="48.79796" lon="5.1306">
        <ele>204</ele>
        <time>2019-04-28T14:53:17Z</time>
      </trkpt>
      <trkpt lat="48.79888" lon="5.1322">
        <ele>214</ele>
        <time>2019-04-28T14:54:17Z</time>
      </trkpt>
      <trkpt lat="48.79944" lon="5.13354">
        <ele>219</ele>
        <time>2019-04-28T14:55:17Z</time>
      </trkpt>
      <trkpt lat="48.801" lon="5.13251">
        <ele>221</ele>
        <time>2019-04-28T14:56:17Z</time>
      </trkpt>
      <trkpt lat="48.80254" lon="5.13199">
        <ele>220</ele>
        <time>2019-04-28T14:57:17Z</time>
      </trkpt>
      <trkpt lat="48.80448" lon="5.13105">
        <ele>221</ele>
        <time>2019-04-28T14:58:17Z</time>
      </trkpt>
      <trkpt lat="48.80652" lon="5.13099">
        <ele>219</ele>
        <time>2019-04-28T14:59:17Z</time>
      </trkpt>
      <trkpt lat="48.80844" lon="5.13014">
        <ele>219</ele>
        <time>2019-04-28T15:00:17Z</time>
      </trkpt>
      <trkpt lat="48.8086" lon="5.13214">
        <ele>221</ele>
        <time>2019-04-28T15:01:17Z</time>
      </trkpt>
      <trkpt lat="48.80878" lon="5.13393">
        <ele>224</ele>
        <time>2019-04-28T15:02:17Z</time>
      </trkpt>
      <trkpt lat="48.80886" lon="5.13521">
        <ele>224</ele>
        <time>2019-04-28T15:03:17Z</time>
      </trkpt>
      <trkpt lat="48.80892" lon="5.13651">
        <ele>220</ele>
        <time>2019-04-28T15:04:17Z</time>
      </trkpt>
      <trkpt lat="48.80904" lon="5.1373">
        <ele>217</ele>
        <time>2019-04-28T15:05:17Z</time>
      </trkpt>
      <trkpt lat="48.81" lon="5.13688">
        <ele>199</ele>
        <time>2019-04-28T15:06:17Z</time>
      </trkpt>
      <trkpt lat="48.81056" lon="5.13888">
        <ele>206</ele>
        <time>2019-04-28T15:07:17Z</time>
      </trkpt>
      <trkpt lat="48.81185" lon="5.13833">
        <ele>210</ele>
        <time>2019-04-28T15:08:17Z</time>
      </trkpt>
      <trkpt lat="48.81255" lon="5.139">
        <ele>218</ele>
        <time>2019-04-28T15:09:17Z</time>
      </trkpt>
      <trkpt lat="48.81347" lon="5.13961">
        <ele>229</ele>
        <time>2019-04-28T15:10:17Z</time>
      </trkpt>
      <trkpt lat="48.81365" lon="5.13994">
        <ele>230</ele>
        <time>2019-04-28T15:11:17Z</time>
      </trkpt>
      <trkpt lat="48.81321" lon="5.14015">
        <ele>228</ele>
        <time>2019-04-28T15:12:17Z</time>
      </trkpt>
      <trkpt lat="48.81311" lon="5.14197">
        <ele>232</ele>
        <time>2019-04-28T15:13:17Z</time>
      </trkpt>
      <trkpt lat="48.81317" lon="5.14343">
        <ele>241</ele>
        <time>2019-04-28T15:14:17Z</time>
      </trkpt>
      <trkpt lat="48.81355" lon="5.14486">
        <ele>246</ele>
        <time>2019-04-28T15:15:17Z</time>
      </trkpt>
      <trkpt lat="48.81397" lon="5.14604">
        <ele>251</ele>
        <time>2019-04-28T15:16:17Z</time>
      </trkpt>
      <trkpt lat="48.81487" lon="5.14662">
        <ele>260</ele>
        <time>2019-04-28T15:17:17Z</time>
      </trkpt>
      <trkpt lat="48.81667" lon="5.14923">
        <ele>266</ele>
        <time>2019-04-28T15:18:17Z</time>
      </trkpt>
      <trkpt lat="48.81839" lon="5.1515">
        <ele>270</ele>
        <time>2019-04-28T15:19:17Z</time>
      </trkpt>
      <trkpt lat="48.81845" lon="5.15211">
        <ele>268</ele>
        <time>2019-04-28T15:20:17Z</time>
      </trkpt>
      <trkpt lat="48.81831" lon="5.1532">
        <ele>259</ele>
        <time>2019-04-28T15:21:17Z</time>
      </trkpt>
      <trkpt lat="48.81841" lon="5.15457">
        <ele>248</ele>
        <time>2019-04-28T15:22:17Z</time>
      </trkpt>
      <trkpt lat="48.81961" lon="5.15539">
        <ele>260</ele>
        <time>2019-04-28T15:23:17Z</time>
      </trkpt>
      <trkpt lat="48.82079" lon="5.15511">
        <ele>267</ele>
        <time>2019-04-28T15:24:17Z</time>
      </trkpt>
      <trkpt lat="48.82153" lon="5.15557">
        <ele>271</ele>
        <time>2019-04-28T15:25:17Z</time>
      </trkpt>
      <trkpt lat="48.8224" lon="5.15778">
        <ele>268</ele>
        <time>2019-04-28T15:26:17Z</time>
      </trkpt>
      <trkpt lat="48.82334" lon="5.15988">
        <ele>272</ele>
        <time>2019-04-28T15:27:17Z</time>
      </trkpt>
      <trkpt lat="48.82398" lon="5.16185">
        <ele>275</ele>
        <time>2019-04-28T15:28:17Z</time>
      </trkpt>
      <trkpt lat="48.8244" lon="5.16307">
        <ele>272</ele>
        <time>2019-04-28T15:29:17Z</time>
      </trkpt>
      <trkpt lat="48.82602" lon="5.16385">
        <ele>273</ele>
        <time>2019-04-28T15:30:17Z</time>
      </trkpt>
      <trkpt lat="48.82746" lon="5.16428">
        <ele>273</ele>
        <time>2019-04-28T15:31:17Z</time>
      </trkpt>
      <trkpt lat="48.82612" lon="5.16631">
        <ele>262</ele>
        <time>2019-04-28T15:32:17Z</time>
      </trkpt>
      <trkpt lat="48.82422" lon="5.16859">
        <ele>228</ele>
        <time>2019-04-28T15:33:17Z</time>
      </trkpt>
      <trkpt lat="48.82308" lon="5.16683">
        <ele>226</ele>
        <time>2019-04-28T15:34:17Z</time>
      </trkpt>
      <trkpt lat="48.82246" lon="5.16707">
        <ele>223</ele>
        <time>2019-04-28T15:35:17Z</time>
      </trkpt>
      <trkpt lat="48.82117" lon="5.16461">
        <ele>227</ele>
        <time>2019-04-28T15:36:17Z</time>
      </trkpt>
      <trkpt lat="48.81995" lon="5.16282">
        <ele>225</ele>
        <time>2019-04-28T15:37:17Z</time>
      </trkpt>
      <trkpt lat="48.81949" lon="5.16234">
        <ele>228</ele>
        <time>2019-04-28T15:38:17Z</time>
      </trkpt>
      <trkpt lat="48.81891" lon="5.16088">
        <ele>220</ele>
        <time>2019-04-28T15:39:17Z</time>
      </trkpt>
      <trkpt lat="48.81843" lon="5.16146">
        <ele>225</ele>
        <time>2019-04-28T15:40:17Z</time>
      </trkpt>
      <trkpt lat="48.81795" lon="5.16246">
        <ele>230</ele>
        <time>2019-04-28T15:41:17Z</time>
      </trkpt>
      <trkpt lat="48.81771" lon="5.16349">
        <ele>233</ele>
        <time>2019-04-28T15:42:17Z</time>
      </trkpt>
      <trkpt lat="48.81727" lon="5.16476">
        <ele>237</ele>
        <time>2019-04-28T15:43:17Z</time>
      </trkpt>
      <trkpt lat="48.81577" lon="5.16583">
        <ele>245</ele>
        <time>2019-04-28T15:44:17Z</time>
      </trkpt>
      <trkpt lat="48.81697" lon="5.16698">
        <ele>242</ele>
        <time>2019-04-28T15:45:17Z</time>
      </trkpt>
      <trkpt lat="48.81827" lon="5.16838">
        <ele>253</ele>
        <time>2019-04-28T15:46:17Z</time>
      </trkpt>
      <trkpt lat="48.81921" lon="5.16938">
        <ele>252</ele>
        <time>2019-04-28T15:47:17Z</time>
      </trkpt>
      <trkpt lat="48.81929" lon="5.17111">
        <ele>249</ele>
        <time>2019-04-28T15:48:17Z</time>
      </trkpt>
      <trkpt lat="48.81919" lon="5.17171">
        <ele>251</ele>
        <time>2019-04-28T15:49:17Z</time>
      </trkpt>
      <trkpt lat="48.81879" lon="5.17214">
        <ele>253</ele>
        <time>2019-04-28T15:50:17Z</time>
      </trkpt>
      <trkpt lat="48.81921" lon="5.17308">
        <ele>253</ele>
        <time>2019-04-28T15:51:17Z</time>
      </trkpt>
      <trkpt lat="48.81945" lon="5.17441">
        <ele>248</ele>
        <time>2019-04-28T15:52:17Z</time>
      </trkpt>
      <trkpt lat="48.81927" lon="5.17536">
        <ele>248</ele>
        <time>2019-04-28T15:53:17Z</time>
      </trkpt>
      <trkpt lat="48.81899" lon="5.17593">
        <ele>248</ele>
        <time>2019-04-28T15:54:17Z</time>
      </trkpt>
      <trkpt lat="48.81623" lon="5.1786">
        <ele>266</ele>
        <time>2019-04-28T15:55:17Z</time>
      </trkpt>
      <trkpt lat="48.81811" lon="5.18294">
        <ele>274</ele>
        <time>2019-04-28T15:56:17Z</time>
      </trkpt>
      <trkpt lat="48.81527" lon="5.18582">
        <ele>278</ele>
        <time>2019-04-28T15:57:17Z</time>
      </trkpt>
      <trkpt lat="48.81501" lon="5.18537">
        <ele>280</ele>
        <time>2019-04-28T15:58:17Z</time>
      </trkpt>
      <trkpt lat="48.81463" lon="5.18519">
        <ele>277</ele>
        <time>2019-04-28T15:59:17Z</time>
      </trkpt>
      <trkpt lat="48.81371" lon="5.18573">
        <ele>258</ele>
        <time>2019-04-28T16:00:17Z</time>
      </trkpt>
      <trkpt lat="48.81337" lon="5.18595">
        <ele>254</ele>
        <time>2019-04-28T16:01:17Z</time>
      </trkpt>
      <trkpt lat="48.81227" lon="5.18537">
        <ele>259</ele>
        <time>2019-04-28T16:02:17Z</time>
      </trkpt>
      <trkpt lat="48.8095" lon="5.18097">
        <ele>268</ele>
        <time>2019-04-28T16:03:17Z</time>
      </trkpt>
      <trkpt lat="48.80676" lon="5.17666">
        <ele>254</ele>
        <time>2019-04-28T16:04:17Z</time>
      </trkpt>
      <trkpt lat="48.80588" lon="5.17669">
        <ele>257</ele>
        <time>2019-04-28T16:05:17Z</time>
      </trkpt>
      <trkpt lat="48.8053" lon="5.18012">
        <ele>262</ele>
        <time>2019-04-28T16:06:17Z</time>
      </trkpt>
      <trkpt lat="48.80452" lon="5.18309">
        <ele>270</ele>
        <time>2019-04-28T16:07:17Z</time>
      </trkpt>
      <trkpt lat="48.80516" lon="5.1837">
        <ele>271</ele>
        <time>2019-04-28T16:08:17Z</time>
      </trkpt>
      <trkpt lat="48.80708" lon="5.18385">
        <ele>283</ele>
        <time>2019-04-28T16:09:17Z</time>
      </trkpt>
      <trkpt lat="48.80576" lon="5.18595">
        <ele>289</ele>
        <time>2019-04-28T16:10:17Z</time>
      </trkpt>
      <trkpt lat="48.80332" lon="5.18931">
        <ele>290</ele>
        <time>2019-04-28T16:11:17Z</time>
      </trkpt>
      <trkpt lat="48.8018" lon="5.19156">
        <ele>296</ele>
        <time>2019-04-28T16:12:17Z</time>
      </trkpt>
      <trkpt lat="48.8012" lon="5.19041">
        <ele>294</ele>
        <time>2019-04-28T16:13:17Z</time>
      </trkpt>
      <trkpt lat="48.80044" lon="5.18916">
        <ele>298</ele>
        <time>2019-04-28T16:14:17Z</time>
      </trkpt>
      <trkpt lat="48.79998" lon="5.18737">
        <ele>299</ele>
        <time>2019-04-28T16:15:17Z</time>
      </trkpt>
      <trkpt lat="48.79986" lon="5.18689">
        <ele>297</ele>
        <time>2019-04-28T16:16:17Z</time>
      </trkpt>
      <trkpt lat="48.79958" lon="5.18497">
        <ele>290</ele>
        <time>2019-04-28T16:17:17Z</time>
      </trkpt>
      <trkpt lat="48.7993" lon="5.18346">
        <ele>284</ele>
        <time>2019-04-28T16:18:17Z</time>
      </trkpt>
      <trkpt lat="48.7982" lon="5.18328">
        <ele>281</ele>
        <time>2019-04-28T16:19:17Z</time>
      </trkpt>
      <trkpt lat="48.79706" lon="5.18306">
        <ele>285</ele>
        <time>2019-04-28T16:20:17Z</time>
      </trkpt>
      <trkpt lat="48.79596" lon="5.18179">
        <ele>289</ele>
        <time>2019-04-28T16:21:17Z</time>
      </trkpt>
      <trkpt lat="48.79516" lon="5.18148">
        <ele>292</ele>
        <time>2019-04-28T16:22:17Z</time>
      </trkpt>
      <trkpt lat="48.7952" lon="5.1824">
        <ele>292</ele>
        <time>2019-04-28T16:23:17Z</time>
      </trkpt>
      <trkpt lat="48.7953" lon="5.18385">
        <ele>292</ele>
        <time>2019-04-28T16:24:17Z</time>
      </trkpt>
      <trkpt lat="48.79467" lon="5.18416">
        <ele>291</ele>
        <time>2019-04-28T16:25:17Z</time>
      </trkpt>
      <trkpt lat="48.79403" lon="5.1844">
        <ele>289</ele>
        <time>2019-04-28T16:26:17Z</time>
      </trkpt>
      <trkpt lat="48.79457" lon="5.18673">
        <ele>294</ele>
        <time>2019-04-28T16:27:17Z</time>
      </trkpt>
      <trkpt lat="48.79475" lon="5.18849">
        <ele>296</ele>
        <time>2019-04-28T16:28:17Z</time>
      </trkpt>
      <trkpt lat="48.79467" lon="5.18934">
        <ele>298</ele>
        <time>2019-04-28T16:29:17Z</time>
      </trkpt>
      <trkpt lat="48.79355" lon="5.19041">
        <ele>299</ele>
        <time>2019-04-28T16:30:17Z</time>
      </trkpt>
      <trkpt lat="48.79367" lon="5.19095">
        <ele>298</ele>
        <time>2019-04-28T16:31:17Z</time>
      </trkpt>
      <trkpt lat="48.79435" lon="5.19323">
        <ele>295</ele>
        <time>2019-04-28T16:32:17Z</time>
      </trkpt>
      <trkpt lat="48.79443" lon="5.1952">
        <ele>296</ele>
        <time>2019-04-28T16:33:17Z</time>
      </trkpt>
      <trkpt lat="48.79489" lon="5.19708">
        <ele>295</ele>
        <time>2019-04-28T16:34:17Z</time>
      </trkpt>
      <trkpt lat="48.79542" lon="5.19811">
        <ele>298</ele>
        <time>2019-04-28T16:35:17Z</time>
      </trkpt>
      <trkpt lat="48.79642" lon="5.19796">
        <ele>298</ele>
        <time>2019-04-28T16:36:17Z</time>
      </trkpt>
      <trkpt lat="48.7972" lon="5.19851">
        <ele>296</ele>
        <time>2019-04-28T16:37:17Z</time>
      </trkpt>
      <trkpt lat="48.79818" lon="5.1996">
        <ele>292</ele>
        <time>2019-04-28T16:38:17Z</time>
      </trkpt>
      <trkpt lat="48.7988" lon="5.20124">
        <ele>296</ele>
        <time>2019-04-28T16:39:17Z</time>
      </trkpt>
      <trkpt lat="48.79998" lon="5.20409">
        <ele>301</ele>
        <time>2019-04-28T16:40:17Z</time>
      </trkpt>
      <trkpt lat="48.797" lon="5.20634">
        <ele>300</ele>
        <time>2019-04-28T16:41:17Z</time>
      </trkpt>
      <trkpt lat="48.79612" lon="5.20688">
        <ele>298</ele>
        <time>2019-04-28T16:42:17Z</time>
      </trkpt>
      <trkpt lat="48.79512" lon="5.20798">
        <ele>295</ele>
        <time>2019-04-28T16:43:17Z</time>
      </trkpt>
      <trkpt lat="48.79429" lon="5.20591">
        <ele>293</ele>
        <time>2019-04-28T16:44:17Z</time>
      </trkpt>
      <trkpt lat="48.79435" lon="5.20424">
        <ele>294</ele>
        <time>2019-04-28T16:45:17Z</time>
      </trkpt>
      <trkpt lat="48.79411" lon="5.20358">
        <ele>293</ele>
        <time>2019-04-28T16:46:17Z</time>
      </trkpt>
      <trkpt lat="48.79417" lon="5.20291">
        <ele>292</ele>
        <time>2019-04-28T16:47:17Z</time>
      </trkpt>
      <trkpt lat="48.79498" lon="5.20182">
        <ele>296</ele>
        <time>2019-04-28T16:48:17Z</time>
      </trkpt>
      <trkpt lat="48.7959" lon="5.20154">
        <ele>293</ele>
        <time>2019-04-28T16:49:17Z</time>
      </trkpt>
      <trkpt lat="48.79646" lon="5.20094">
        <ele>290</ele>
        <time>2019-04-28T16:50:17Z</time>
      </trkpt>
      <trkpt lat="48.79654" lon="5.20033">
        <ele>288</ele>
        <time>2019-04-28T16:51:17Z</time>
      </trkpt>
      <trkpt lat="48.79644" lon="5.20009">
        <ele>287</ele>
        <time>2019-04-28T16:52:17Z</time>
      </trkpt>
      <trkpt lat="48.79584" lon="5.19969">
        <ele>287</ele>
        <time>2019-04-28T16:53:17Z</time>
      </trkpt>
      <trkpt lat="48.79528" lon="5.19939">
        <ele>287</ele>
        <time>2019-04-28T16:54:17Z</time>
      </trkpt>
      <trkpt lat="48.79441" lon="5.19857">
        <ele>292</ele>
        <time>2019-04-28T16:55:17Z</time>
      </trkpt>
      <trkpt lat="48.79367" lon="5.19881">
        <ele>292</ele>
        <time>2019-04-28T16:56:17Z</time>
      </trkpt>
      <trkpt lat="48.79255" lon="5.19887">
        <ele>294</ele>
        <time>2019-04-28T16:57:17Z</time>
      </trkpt>
      <trkpt lat="48.79135" lon="5.19899">
        <ele>288</ele>
        <time>2019-04-28T16:58:17Z</time>
      </trkpt>
      <trkpt lat="48.78989" lon="5.19939">
        <ele>277</ele>
        <time>2019-04-28T16:59:17Z</time>
      </trkpt>
      <trkpt lat="48.78939" lon="5.19945">
        <ele>274</ele>
        <time>2019-04-28T17:00:17Z</time>
      </trkpt>
      <trkpt lat="48.78857" lon="5.19854">
        <ele>275</ele>
        <time>2019-04-28T17:01:17Z</time>
      </trkpt>
      <trkpt lat="48.78871" lon="5.19769">
        <ele>280</ele>
        <time>2019-04-28T17:02:17Z</time>
      </trkpt>
      <trkpt lat="48.78993" lon="5.19714">
        <ele>287</ele>
        <time>2019-04-28T17:03:17Z</time>
      </trkpt>
      <trkpt lat="48.79091" lon="5.19623">
        <ele>289</ele>
        <time>2019-04-28T17:04:17Z</time>
      </trkpt>
      <trkpt lat="48.79225" lon="5.19554">
        <ele>293</ele>
        <time>2019-04-28T17:05:17Z</time>
      </trkpt>
      <trkpt lat="48.79297" lon="5.19462">
        <ele>293</ele>
        <time>2019-04-28T17:06:17Z</time>
      </trkpt>
      <trkpt lat="48.79317" lon="5.19374">
        <ele>292</ele>
        <time>2019-04-28T17:07:17Z</time>
      </trkpt>
      <trkpt lat="48.79329" lon="5.19192">
        <ele>295</ele>
        <time>2019-04-28T17:08:17Z</time>
      </trkpt>
      <trkpt lat="48.79327" lon="5.19071">
        <ele>298</ele>
        <time>2019-04-28T17:09:17Z</time>
      </trkpt>
      <trkpt lat="48.79345" lon="5.18998">
        <ele>300</ele>
        <time>2019-04-28T17:10:17Z</time>
      </trkpt>
      <trkpt lat="48.79339" lon="5.18856">
        <ele>297</ele>
        <time>2019-04-28T17:11:17Z</time>
      </trkpt>
      <trkpt lat="48.79313" lon="5.18683">
        <ele>294</ele>
        <time>2019-04-28T17:12:17Z</time>
      </trkpt>
      <trkpt lat="48.79287" lon="5.18528">
        <ele>292</ele>
        <time>2019-04-28T17:13:17Z</time>
      </trkpt>
      <trkpt lat="48.79261" lon="5.18564">
        <ele>293</ele>
        <time>2019-04-28T17:14:17Z</time>
      </trkpt>
      <trkpt lat="48.79181" lon="5.18385">
        <ele>287</ele>
        <time>2019-04-28T17:15:17Z</time>
      </trkpt>
      <trkpt lat="48.79139" lon="5.18252">
        <ele>284</ele>
        <time>2019-04-28T17:16:17Z</time>
      </trkpt>
      <trkpt lat="48.79103" lon="5.18148">
        <ele>283</ele>
        <time>2019-04-28T17:17:17Z</time>
      </trkpt>
      <trkpt lat="48.79089" lon="5.18073">
        <ele>284</ele>
        <time>2019-04-28T17:18:17Z</time>
      </trkpt>
      <trkpt lat="48.79173" lon="5.18067">
        <ele>281</ele>
        <time>2019-04-28T17:19:17Z</time>
      </trkpt>
      <trkpt lat="48.79221" lon="5.18006">
        <ele>279</ele>
        <time>2019-04-28T17:20:17Z</time>
      </trkpt>
      <trkpt lat="48.79269" lon="5.18064">
        <ele>280</ele>
        <time>2019-04-28T17:21:17Z</time>
      </trkpt>
      <trkpt lat="48.79311" lon="5.18024">
        <ele>281</ele>
        <time>2019-04-28T17:22:17Z</time>
      </trkpt>
      <trkpt lat="48.79381" lon="5.18003">
        <ele>285</ele>
        <time>2019-04-28T17:23:17Z</time>
      </trkpt>
      <trkpt lat="48.79437" lon="5.18051">
        <ele>289</ele>
        <time>2019-04-28T17:24:17Z</time>
      </trkpt>
      <trkpt lat="48.79536" lon="5.18045">
        <ele>289</ele>
        <time>2019-04-28T17:25:17Z</time>
      </trkpt>
      <trkpt lat="48.79606" lon="5.17972">
        <ele>287</ele>
        <time>2019-04-28T17:26:17Z</time>
      </trkpt>
      <trkpt lat="48.79778" lon="5.17875">
        <ele>278</ele>
        <time>2019-04-28T17:27:17Z</time>
      </trkpt>
      <trkpt lat="48.79902" lon="5.17821">
        <ele>273</ele>
        <time>2019-04-28T17:28:17Z</time>
      </trkpt>
      <trkpt lat="48.79966" lon="5.17724">
        <ele>272</ele>
        <time>2019-04-28T17:29:17Z</time>
      </trkpt>
      <trkpt lat="48.79986" lon="5.17617">
        <ele>271</ele>
        <time>2019-04-28T17:30:17Z</time>
      </trkpt>
      <trkpt lat="48.80002" lon="5.17399">
        <ele>269</ele>
        <time>2019-04-28T17:31:17Z</time>
      </trkpt>
      <trkpt lat="48.80032" lon="5.17159">
        <ele>271</ele>
        <time>2019-04-28T17:32:17Z</time>
      </trkpt>
      <trkpt lat="48.80102" lon="5.17017">
        <ele>274</ele>
        <time>2019-04-28T17:33:17Z</time>
      </trkpt>
      <trkpt lat="48.80142" lon="5.16822">
        <ele>272</ele>
        <time>2019-04-28T17:34:17Z</time>
      </trkpt>
      <trkpt lat="48.80164" lon="5.16558">
        <ele>263</ele>
        <time>2019-04-28T17:35:17Z</time>
      </trkpt>
      <trkpt lat="48.80192" lon="5.16355">
        <ele>249</ele>
        <time>2019-04-28T17:36:17Z</time>
      </trkpt>
      <trkpt lat="48.80162" lon="5.16152">
        <ele>242</ele>
        <time>2019-04-28T17:37:17Z</time>
      </trkpt>
      <trkpt lat="48.80148" lon="5.15839">
        <ele>224</ele>
        <time>2019-04-28T17:38:17Z</time>
      </trkpt>
      <trkpt lat="48.80102" lon="5.15754">
        <ele>229</ele>
        <time>2019-04-28T17:39:17Z</time>
      </trkpt>
      <trkpt lat="48.80066" lon="5.15727">
        <ele>233</ele>
        <time>2019-04-28T17:40:17Z</time>
      </trkpt>
      <trkpt lat="48.7997" lon="5.15624">
        <ele>236</ele>
        <time>2019-04-28T17:41:17Z</time>
      </trkpt>
      <trkpt lat="48.7991" lon="5.1556">
        <ele>242</ele>
        <time>2019-04-28T17:42:17Z</time>
      </trkpt>
      <trkpt lat="48.79852" lon="5.15481">
        <ele>241</ele>
        <time>2019-04-28T17:43:17Z</time>
      </trkpt>
      <trkpt lat="48.79806" lon="5.15329">
        <ele>237</ele>
        <time>2019-04-28T17:44:17Z</time>
      </trkpt>
      <trkpt lat="48.7979" lon="5.15199">
        <ele>232</ele>
        <time>2019-04-28T17:45:17Z</time>
      </trkpt>
      <trkpt lat="48.79766" lon="5.15105">
        <ele>230</ele>
        <time>2019-04-28T17:46:17Z</time>
      </trkpt>
      <trkpt lat="48.7975" lon="5.15087">
        <ele>230</ele>
        <time>2019-04-28T17:47:17Z</time>
      </trkpt>
      <trkpt lat="48.79764" lon="5.15184">
        <ele>233</ele>
        <time>2019-04-28T17:48:17Z</time>
      </trkpt>
      <trkpt lat="48.7978" lon="5.15302">
        <ele>238</ele>
        <time>2019-04-28T17:49:17Z</time>
      </trkpt>
      <trkpt lat="48.79802" lon="5.15387">
        <ele>240</ele>
        <time>2019-04-28T17:50:17Z</time>
      </trkpt>
      <trkpt lat="48.7982" lon="5.15469">
        <ele>243</ele>
        <time>2019-04-28T17:51:17Z</time>
      </trkpt>
      <trkpt lat="48.79848" lon="5.15533">
        <ele>245</ele>
        <time>2019-04-28T17:52:17Z</time>
      </trkpt>
      <trkpt lat="48.79856" lon="5.15602">
        <ele>248</ele>
        <time>2019-04-28T17:53:17Z</time>
      </trkpt>
      <trkpt lat="48.79846" lon="5.15648">
        <ele>251</ele>
        <time>2019-04-28T17:54:17Z</time>
      </trkpt>
      <trkpt lat="48.79828" lon="5.15694">
        <ele>254</ele>
        <time>2019-04-28T17:55:17Z</time>
      </trkpt>
      <trkpt lat="48.798" lon="5.15615">
        <ele>249</ele>
        <time>2019-04-28T17:56:17Z</time>
      </trkpt>
      <trkpt lat="48.79756" lon="5.15502">
        <ele>248</ele>
        <time>2019-04-28T17:57:17Z</time>
      </trkpt>
      <trkpt lat="48.79734" lon="5.15387">
        <ele>241</ele>
        <time>2019-04-28T17:58:17Z</time>
      </trkpt>
      <trkpt lat="48.79734" lon="5.15235">
        <ele>234</ele>
        <time>2019-04-28T17:59:17Z</time>
      </trkpt>
      <trkpt lat="48.79744" lon="5.15047">
        <ele>227</ele>
        <time>2019-04-28T18:00:17Z</time>
      </trkpt>
      <trkpt lat="48.79746" lon="5.1498">
        <ele>224</ele>
        <time>2019-04-28T18:01:17Z</time>
      </trkpt>
      <trkpt lat="48.7974" lon="5.14844">
        <ele>220</ele>
        <time>2019-04-28T18:02:17Z</time>
      </trkpt>
      <trkpt lat="48.7975" lon="5.14665">
        <ele>220</ele>
        <time>2019-04-28T18:03:17Z</time>
      </trkpt>
      <trkpt lat="48.79766" lon="5.14513">
        <ele>216</ele>
        <time>2019-04-28T18:04:17Z</time>
      </trkpt>
      <trkpt lat="48.7979" lon="5.14401">
        <ele>212</ele>
        <time>2019-04-28T18:05:17Z</time>
      </trkpt>
      <trkpt lat="48.79814" lon="5.14285">
        <ele>209</ele>
        <time>2019-04-28T18:06:17Z</time>
      </trkpt>
      <trkpt lat="48.7984" lon="5.14185">
        <ele>207</ele>
        <time>2019-04-28T18:07:17Z</time>
      </trkpt>
      <trkpt lat="48.79832" lon="5.14088">
        <ele>206</ele>
        <time>2019-04-28T18:08:17Z</time>
      </trkpt>
      <trkpt lat="48.79786" lon="5.14046">
        <ele>209</ele>
        <time>2019-04-28T18:09:17Z</time>
      </trkpt>
      <trkpt lat="48.79724" lon="5.14025">
        <ele>216</ele>
        <time>2019-04-28T18:10:17Z</time>
      </trkpt>
      <trkpt lat="48.79654" lon="5.13964">
        <ele>214</ele>
        <time>2019-04-28T18:11:17Z</time>
      </trkpt>
      <trkpt lat="48.79576" lon="5.13909">
        <ele>207</ele>
        <time>2019-04-28T18:12:17Z</time>
      </trkpt>
      <trkpt lat="48.79494" lon="5.13836">
        <ele>193</ele>
        <time>2019-04-28T18:13:17Z</time>
      </trkpt>
      <trkpt lat="48.79449" lon="5.13788">
        <ele>184</ele>
        <time>2019-04-28T18:14:17Z</time>
      </trkpt>
      <trkpt lat="48.79455" lon="5.13645">
        <ele>179</ele>
        <time>2019-04-28T18:15:17Z</time>
      </trkpt>
      <trkpt lat="48.79433" lon="5.1356">
        <ele>180</ele>
        <time>2019-04-28T18:16:17Z</time>
      </trkpt>
      <trkpt lat="48.79413" lon="5.13402">
        <ele>180</ele>
        <time>2019-04-28T18:17:17Z</time>
      </trkpt>
      <trkpt lat="48.79439" lon="5.13217">
        <ele>180</ele>
        <time>2019-04-28T18:18:17Z</time>
      </trkpt>
      <trkpt lat="48.79481" lon="5.13041">
        <ele>179</ele>
        <time>2019-04-28T18:19:17Z</time>
      </trkpt>
      <trkpt lat="48.795" lon="5.12908">
        <ele>176</ele>
        <time>2019-04-28T18:20:17Z</time>
      </trkpt>
      <trkpt lat="48.79494" lon="5.12847">
        <ele>173</ele>
        <time>2019-04-28T18:21:17Z</time>
      </trkpt>
      <trkpt lat="48.79411" lon="5.12786">
        <ele>174</ele>
        <time>2019-04-28T18:22:17Z</time>
      </trkpt>
      <trkpt lat="48.79321" lon="5.12698">
        <ele>175</ele>
        <time>2019-04-28T18:23:17Z</time>
      </trkpt>
      <trkpt lat="48.79255" lon="5.12641">
        <ele>176</ele>
        <time>2019-04-28T18:24:17Z</time>
      </trkpt>
      <trkpt lat="48.79283" lon="5.12492">
        <ele>173</ele>
        <time>2019-04-28T18:25:17Z</time>
      </trkpt>
      <trkpt lat="48.79299" lon="5.12416">
        <ele>172</ele>
        <time>2019-04-28T18:26:17Z</time>
      </trkpt>
      <trkpt lat="48.79271" lon="5.12355">
        <ele>173</ele>
        <time>2019-04-28T18:27:17Z</time>
      </trkpt>
      <trkpt lat="48.79265" lon="5.12267">
        <ele>173</ele>
        <time>2019-04-28T18:28:17Z</time>
      </trkpt>
      <trkpt lat="48.79311" lon="5.12179">
        <ele>173</ele>
        <time>2019-04-28T18:29:17Z</time>
      </trkpt>
      <trkpt lat="48.79359" lon="5.12058">
        <ele>173</ele>
        <time>2019-04-28T18:30:17Z</time>
      </trkpt>
    </trkseg>
  </trk>
</gpx>